createdAt,value
2019-02-21T16:02:37.591Z,56.20
2019-02-21T16:05:06.797Z,56.60
2019-02-21T16:07:35.191Z,56.80
2019-02-21T16:10:06.879Z,56.90
2019-02-21T16:12:35.393Z,57.10
2019-02-21T16:15:04.233Z,57.40
2019-02-21T16:17:37.052Z,57.60
2019-02-21T16:20:02.932Z,57.80
2019-02-21T16:22:31.313Z,57.90
2019-02-21T16:24:59.677Z,58.10
2019-02-21T16:27:28.096Z,58.40
2019-02-21T16:29:56.784Z,58.50
2019-02-21T16:32:25.170Z,58.80
2019-02-21T16:34:55.189Z,59.10
2019-02-21T16:37:23.607Z,59.20
2019-02-21T16:39:52.004Z,59.40
2019-02-21T16:42:20.388Z,59.80
2019-02-21T16:44:50.318Z,60.00
2019-02-21T16:47:18.714Z,60.30
2019-02-21T16:49:47.164Z,60.70
2019-02-21T16:52:16.087Z,61.20
2019-02-21T16:54:44.498Z,61.50
2019-02-21T16:57:12.938Z,61.90
2019-02-21T16:59:43.298Z,62.50
2019-02-21T17:02:11.402Z,62.90
2019-02-21T17:04:39.811Z,63.30
2019-02-21T17:07:13.746Z,63.80
2019-02-21T17:09:38.244Z,64.10
2019-02-21T17:12:06.645Z,64.50
2019-02-21T17:14:35.030Z,64.70
2019-02-21T17:17:03.440Z,65.50
2019-02-21T17:19:31.859Z,65.90
2019-02-21T17:22:00.237Z,66.30
2019-02-21T17:24:28.607Z,67.00
2019-02-21T17:26:57.823Z,67.30
2019-02-21T17:29:26.199Z,67.70
2019-02-21T17:31:54.853Z,68.00
2019-02-21T17:34:23.274Z,68.50
2019-02-21T17:36:51.657Z,68.50
2019-02-21T17:39:20.078Z,68.80
2019-02-21T17:41:48.466Z,69.40
2019-02-21T17:44:16.975Z,69.30
2019-02-21T17:46:45.338Z,69.50
2019-02-21T17:49:15.695Z,69.70
2019-02-21T17:51:44.168Z,69.60
2019-02-21T17:54:12.581Z,70.00
2019-02-21T17:56:40.986Z,70.00
2019-02-21T17:59:09.382Z,70.50
2019-02-21T18:01:37.779Z,70.40
2019-02-21T18:04:06.165Z,70.50
2019-02-21T18:06:34.570Z,70.50
2019-02-21T18:09:04.232Z,70.60
2019-02-21T18:11:32.665Z,70.80
2019-02-21T18:14:01.050Z,70.90
2019-02-21T18:16:30.494Z,71.00
2019-02-21T18:18:58.930Z,71.10
2019-02-21T18:21:29.406Z,71.30
2019-02-21T18:23:57.795Z,71.30
2019-02-21T18:26:26.259Z,71.40
2019-02-21T18:28:54.701Z,71.50
2019-02-21T18:31:23.101Z,71.50
2019-02-21T18:33:51.528Z,71.70
2019-02-21T18:36:19.907Z,71.80
2019-02-21T18:38:48.454Z,71.90
2019-02-21T18:41:16.884Z,72.10
2019-02-21T18:43:45.244Z,72.30
2019-02-21T18:46:13.650Z,72.60
2019-02-21T18:48:42.045Z,72.60
2019-02-21T18:51:10.454Z,72.80
2019-02-21T18:53:38.856Z,72.80
2019-02-21T18:56:09.431Z,72.90
2019-02-21T18:58:39.448Z,72.90
2019-02-21T19:01:09.472Z,73.00
2019-02-21T19:03:37.861Z,73.10
2019-02-21T19:06:06.551Z,73.20
2019-02-21T19:08:34.929Z,73.20
2019-02-21T19:11:03.332Z,73.30
2019-02-21T19:13:31.786Z,73.40
2019-02-21T19:16:00.140Z,73.50
2019-02-21T19:18:28.579Z,73.50
2019-02-21T19:20:57.012Z,73.60
2019-02-21T19:23:25.453Z,74.10
2019-02-21T19:25:53.835Z,74.00
2019-02-21T19:28:22.268Z,74.00
2019-02-21T19:30:53.918Z,74.10
2019-02-21T19:33:24.658Z,74.20
2019-02-21T19:35:53.096Z,74.30
2019-02-21T19:38:21.478Z,74.50
2019-02-21T19:40:49.896Z,74.60
2019-02-21T19:43:18.304Z,74.90
2019-02-21T19:45:46.735Z,74.90
2019-02-21T19:48:15.121Z,74.90
2019-02-21T19:50:43.613Z,75.00
2019-02-21T19:53:14.363Z,75.00
2019-02-21T19:55:42.063Z,75.10
2019-02-21T19:58:10.452Z,75.30
2019-02-21T20:00:40.541Z,75.40
2019-02-21T20:03:08.954Z,75.50
2019-02-21T20:05:39.482Z,75.60
2019-02-21T20:08:09.042Z,75.50
2019-02-21T20:10:37.583Z,75.50
2019-02-21T20:13:08.386Z,75.60
2019-02-21T20:15:36.771Z,75.80
2019-02-21T20:18:05.199Z,75.70
2019-02-21T20:20:33.646Z,75.60
2019-02-21T20:23:02.061Z,75.40
2019-02-21T20:25:30.473Z,75.50
2019-02-21T20:28:00.481Z,75.40
2019-02-21T20:30:29.021Z,75.50
2019-02-21T20:32:57.437Z,75.50
2019-02-21T20:35:25.871Z,75.90
2019-02-21T20:37:54.272Z,75.60
2019-02-21T20:40:22.750Z,75.60
2019-02-21T20:42:51.120Z,75.70
2019-02-21T20:45:21.178Z,75.90
2019-02-21T20:47:49.581Z,75.90
2019-02-21T20:50:18.083Z,76.40
2019-02-21T20:52:46.477Z,75.90
2019-02-21T20:55:15.164Z,76.10
2019-02-21T20:57:43.550Z,75.80
2019-02-21T21:00:13.678Z,75.70
2019-02-21T21:02:42.112Z,75.60
2019-02-21T21:05:10.469Z,76.00
2019-02-21T21:07:38.954Z,75.80
2019-02-21T21:10:13.274Z,75.70
2019-02-21T21:12:41.689Z,75.70
2019-02-21T21:15:11.702Z,75.60
2019-02-21T21:17:40.100Z,75.60
2019-02-21T21:20:16.409Z,75.70
2019-02-21T21:22:40.376Z,75.70
2019-02-21T21:25:11.670Z,75.80
2019-02-21T21:27:40.067Z,75.80
2019-02-21T21:30:10.620Z,75.80
2019-02-21T21:32:39.021Z,76.80
2019-02-21T21:35:07.505Z,76.10
2019-02-21T21:37:35.907Z,76.20
2019-02-21T21:40:06.821Z,76.50
2019-02-21T21:42:35.602Z,76.30
2019-02-21T21:45:06.359Z,76.40
2019-02-21T21:47:34.778Z,76.30
2019-02-21T21:50:03.241Z,76.40
2019-02-21T21:52:31.665Z,76.40
2019-02-21T21:55:00.175Z,76.70
2019-02-21T21:57:28.667Z,76.60
2019-02-21T21:59:57.068Z,76.60
2019-02-21T22:02:25.759Z,76.70
2019-02-21T22:04:54.148Z,76.70
2019-02-21T22:07:22.542Z,76.70
2019-02-21T22:09:50.920Z,76.80
2019-02-21T22:12:19.257Z,76.90
2019-02-21T22:14:47.638Z,76.90
2019-02-21T22:17:16.119Z,77.10
2019-02-21T22:19:44.507Z,77.00
2019-02-21T22:22:12.938Z,77.20
2019-02-21T22:24:41.326Z,77.10
2019-02-21T22:27:09.994Z,77.00
2019-02-21T22:29:38.389Z,77.70
2019-02-21T22:32:06.762Z,77.50
2019-02-21T22:34:35.449Z,77.30
2019-02-21T22:37:03.840Z,77.60
2019-02-21T22:39:32.264Z,77.50
2019-02-21T22:42:00.946Z,77.70
2019-02-21T22:44:29.356Z,77.70
2019-02-21T22:46:57.732Z,77.70
2019-02-21T22:49:26.423Z,77.70
2019-02-21T22:51:54.841Z,77.80
2019-02-21T22:54:23.237Z,77.90
2019-02-21T22:56:51.626Z,77.80
2019-02-21T22:59:20.325Z,78.20
2019-02-21T23:01:48.717Z,77.80
2019-02-21T23:04:20.215Z,78.00
2019-02-21T23:06:55.060Z,78.20
2019-02-21T23:09:27.920Z,78.40
2019-02-21T23:11:54.913Z,78.70
2019-02-21T23:14:23.308Z,78.50
2019-02-21T23:16:51.770Z,78.40
2019-02-21T23:19:20.180Z,78.50
2019-02-21T23:21:48.556Z,78.50
2019-02-21T23:24:16.938Z,78.70
2019-02-21T23:26:45.424Z,78.50
2019-02-21T23:29:13.794Z,78.60
2019-02-21T23:31:42.220Z,78.70
2019-02-21T23:34:12.238Z,78.70
2019-02-21T23:36:40.636Z,79.20
2019-02-21T23:39:09.013Z,78.90
2019-02-21T23:41:37.420Z,78.90
2019-02-21T23:44:05.798Z,78.80
2019-02-21T23:46:34.228Z,78.90
2019-02-21T23:49:02.635Z,79.00
2019-02-21T23:51:31.051Z,79.10
2019-02-21T23:54:03.044Z,79.20
2019-02-21T23:56:30.053Z,79.10
2019-02-21T23:58:58.732Z,79.10
